Time;durP1;ratioP1;P1;durP2;ratioP2;P2;SDS_P1;SDS_P2;PMS_P1;PMS_P2;Temp;Humidity;BMP_temperature;BMP_pressure;BME280_temperature;BME280_humidity;BME280_pressure;Samples;Min_cycle;Max_cycle;Signal;HPM_P1;HPM_P2
2022/09/02 00:01:15;;;;;;;2.40;1.10;;;512.50;2380.80;;;;;;5039260;28;20605;-83
2022/09/02 00:03:43;;;;;;;3.95;1.77;;;512.50;2380.80;;;;;;5043619;28;20033;-84
2022/09/02 00:06:09;;;;;;;3.50;1.00;;;512.60;2380.80;;;;;;5045619;28;20024;-83
2022/09/02 00:08:35;;;;;;;3.47;1.27;;;512.50;2380.80;;;;;;5043175;28;20033;-84
2022/09/02 00:11:05;;;;;;;2.53;1.20;;;512.30;2380.80;;;;;;5041039;28;20068;-85
2022/09/02 00:13:33;;;;;;;4.40;1.00;;;512.10;2380.80;;;;;;5042453;28;20033;-84
2022/09/02 00:15:59;;;;;;;2.92;1.10;;;512.30;2380.80;;;;;;5042756;28;20052;-84
2022/09/02 00:18:26;;;;;;;2.90;0.90;;;512.30;2380.80;;;;;;5042076;28;20057;-85
2022/09/02 00:20:52;;;;;;;2.47;1.33;;;512.20;2380.80;;;;;;5040123;28;20029;-85
2022/09/02 00:23:18;;;;;;;3.72;1.25;;;512.10;2380.80;;;;;;5043549;28;20059;-86
2022/09/02 00:25:45;;;;;;;2.35;0.93;;;512.10;2380.80;;;;;;5044850;28;20029;-85
2022/09/02 00:28:13;;;;;;;2.17;1.00;;;512.10;2380.80;;;;;;5042453;28;20360;-86
2022/09/02 00:30:40;;;;;;;3.30;1.10;;;512.00;2380.80;;;;;;5038291;28;20021;-85
2022/09/02 00:33:07;;;;;;;2.00;1.00;;;487.30;2380.80;;;;;;5042076;28;20037;-85
2022/09/02 00:35:33;;;;;;;3.25;1.15;;;487.30;2380.80;;;;;;5040858;28;20052;-86
2022/09/02 00:37:59;;;;;;;2.95;1.48;;;487.30;2380.80;;;;;;5044217;28;20033;-85
2022/09/02 00:40:26;;;;;;;3.80;1.30;;;487.30;2380.80;;;;;;5047971;28;20033;-86
2022/09/02 00:42:53;;;;;;;2.85;1.50;;;487.30;2380.80;;;;;;5037969;28;20032;-86
2022/09/02 00:45:20;;;;;;;2.65;1.40;;;487.10;2380.80;;;;;;5044322;28;20542;-84
2022/09/02 00:47:46;;;;;;;3.30;1.60;;;487.20;2380.80;;;;;;5043004;28;20029;-85
2022/09/02 00:50:16;;;;;;;4.22;1.77;;;487.20;2380.80;;;;;;5047310;28;20046;-84
2022/09/02 00:52:47;;;;;;;3.30;1.77;;;487.30;2380.80;;;;;;5053448;28;20448;-86
2022/09/02 00:55:17;;;;;;;3.72;1.90;;;487.20;2380.80;;;;;;5049904;28;20511;-85
2022/09/02 00:57:58;;;;;;;5.10;1.88;;;487.20;2380.80;;;;;;5047594;28;20032;-84
2022/09/02 01:00:27;;;;;;;5.32;2.05;;;487.20;2380.80;;;;;;5064631;28;20088;-86
2022/09/02 01:02:59;;;;;;;4.53;1.98;;;487.10;2380.80;;;;;;5054244;28;20019;-85
2022/09/02 01:05:30;;;;;;;3.65;2.33;;;487.10;2380.80;;;;;;5044268;28;20022;-85
2022/09/02 01:07:57;;;;;;;5.53;2.33;;;487.10;2380.80;;;;;;5046523;28;20116;-86
2022/09/02 01:10:32;;;;;;;3.72;2.40;;;512.10;2380.80;;;;;;5047138;28;20083;-85
2022/09/02 01:13:00;;;;;;;3.45;2.30;;;487.10;2380.80;;;;;;5048505;28;20053;-85
2022/09/02 01:15:29;;;;;;;3.25;2.40;;;487.10;2380.80;;;;;;5048771;28;20037;-85
2022/09/02 01:17:57;;;;;;;4.53;2.38;;;487.10;2380.80;;;;;;5046279;28;20024;-85
2022/09/02 01:20:25;;;;;;;4.50;2.38;;;487.20;2380.80;;;;;;5047315;28;20120;-86
2022/09/02 01:22:52;;;;;;;3.33;2.40;;;487.10;2380.80;;;;;;5066873;28;20021;-86
2022/09/02 01:25:22;;;;;;;3.53;2.38;;;487.10;2380.80;;;;;;5046147;28;20022;-84
2022/09/02 01:27:49;;;;;;;5.95;2.80;;;487.10;2380.80;;;;;;5049183;28;20067;-85
2022/09/02 01:30:20;;;;;;;3.70;2.67;;;487.10;2380.80;;;;;;5043533;28;20052;-85
2022/09/02 01:32:46;;;;;;;3.30;2.35;;;487.10;2380.80;;;;;;5047377;28;20100;-86
2022/09/02 01:35:12;;;;;;;5.55;2.67;;;487.10;2380.80;;;;;;5042387;28;20465;-86
2022/09/02 01:37:38;;;;;;;5.90;2.65;;;487.20;2380.80;;;;;;5046253;28;20063;-85
2022/09/02 01:40:10;;;;;;;3.78;2.53;;;487.10;2380.80;;;;;;5047852;28;20442;-86
2022/09/02 01:42:36;;;;;;;5.10;2.88;;;487.10;2380.80;;;;;;5048664;28;20056;-85
2022/09/02 01:45:05;;;;;;;3.75;3.00;;;487.00;2380.80;;;;;;5041573;28;20103;-86
2022/09/02 01:47:31;;;;;;;4.07;2.90;;;487.20;2380.80;;;;;;5042486;28;20033;-85
2022/09/02 01:49:58;;;;;;;4.47;3.17;;;512.40;2380.80;;;;;;5041584;28;20094;-85
2022/09/02 01:52:27;;;;;;;4.25;3.28;;;487.10;2380.80;;;;;;5039910;28;20456;-85
2022/09/02 01:54:54;;;;;;;4.35;3.38;;;487.10;2380.80;;;;;;5048267;28;20095;-85
2022/09/02 01:57:23;;;;;;;4.85;3.08;;;487.10;2380.80;;;;;;5045565;28;20075;-85
2022/09/02 01:59:49;;;;;;;4.28;3.50;;;487.00;2380.80;;;;;;5053886;28;20040;-85
2022/09/02 02:02:17;;;;;;;4.70;2.92;;;487.30;2380.80;;;;;;5071657;28;20034;-85
2022/09/02 02:04:44;;;;;;;4.15;3.20;;;487.30;2380.80;;;;;;5054349;28;20120;-85
2022/09/02 02:07:13;;;;;;;4.78;3.00;;;461.40;2380.80;;;;;;5046051;28;20035;-85
2022/09/02 02:09:40;;;;;;;4.95;3.38;;;487.30;2380.80;;;;;;5051889;28;20021;-85
2022/09/02 02:12:06;;;;;;;7.07;3.70;;;487.30;2380.80;;;;;;5044761;28;20029;-83
2022/09/02 02:14:33;;;;;;;4.93;3.85;;;487.10;2380.80;;;;;;5043917;28;20036;-85
2022/09/02 02:16:59;;;;;;;7.53;3.88;;;487.30;2380.80;;;;;;5047184;28;20041;-85
2022/09/02 02:19:25;;;;;;;6.47;3.60;;;487.30;2380.80;;;;;;5043336;28;20025;-86
2022/09/02 02:21:52;;;;;;;5.85;3.40;;;512.00;2380.80;;;;;;5039954;28;20542;-85
2022/09/02 02:24:18;;;;;;;7.72;4.28;;;487.30;2380.80;;;;;;5043969;28;20025;-83
2022/09/02 02:26:44;;;;;;;4.88;3.55;;;487.30;2380.80;;;;;;5045382;28;20017;-83
2022/09/02 02:29:11;;;;;;;5.75;3.78;;;487.30;2380.80;;;;;;5045347;28;20014;-85
2022/09/02 02:31:37;;;;;;;5.65;3.60;;;487.30;2380.80;;;;;;5044607;28;20036;-85
2022/09/02 02:34:03;;;;;;;7.18;4.40;;;487.10;2380.80;;;;;;5075033;28;20421;-85
2022/09/02 02:36:30;;;;;;;4.50;2.35;;;487.20;2380.80;;;;;;5044368;28;20063;-84
2022/09/02 02:38:56;;;;;;;2.95;1.63;;;487.10;2380.80;;;;;;5047621;28;20036;-86
2022/09/02 02:41:22;;;;;;;2.40;1.40;;;487.30;2380.80;;;;;;5043108;28;20029;-85
2022/09/02 02:43:48;;;;;;;2.22;1.20;;;487.10;2380.80;;;;;;5044728;28;20488;-85
2022/09/02 02:46:14;;;;;;;2.20;1.20;;;486.90;2380.80;;;;;;5043304;28;20021;-84
2022/09/02 02:48:40;;;;;;;2.42;1.15;;;487.00;2380.80;;;;;;5040752;28;20028;-85
2022/09/02 02:51:07;;;;;;;2.40;1.02;;;486.80;2380.80;;;;;;5035295;28;20039;-83
2022/09/02 02:53:35;;;;;;;3.65;1.30;;;486.80;2380.80;;;;;;5049176;28;20425;-85
2022/09/02 02:56:02;;;;;;;2.35;1.35;;;486.80;2380.80;;;;;;5042143;28;20025;-85
2022/09/02 02:58:29;;;;;;;2.72;1.30;;;486.90;2380.80;;;;;;5041616;28;20124;-86
2022/09/02 03:00:56;;;;;;;2.10;1.20;;;486.80;2380.80;;;;;;5037534;28;20037;-85
2022/09/02 03:03:22;;;;;;;2.30;1.10;;;486.80;2380.80;;;;;;5033763;28;20049;-85
2022/09/02 03:05:48;;;;;;;1.90;1.00;;;486.80;2380.80;;;;;;5039429;28;20032;-85
2022/09/02 03:08:19;;;;;;;2.00;1.10;;;461.70;2380.80;;;;;;5042327;28;20044;-83
2022/09/02 03:10:48;;;;;;;3.17;1.30;;;486.80;2380.80;;;;;;5039416;28;20496;-85
2022/09/02 03:13:14;;;;;;;2.05;1.02;;;486.80;2380.80;;;;;;5047638;28;20029;-84
2022/09/02 03:15:41;;;;;;;1.65;0.90;;;487.00;2380.80;;;;;;5059492;28;20017;-86
2022/09/02 03:18:07;;;;;;;2.20;0.90;;;486.90;2380.80;;;;;;5042955;28;20954;-86
2022/09/02 03:20:34;;;;;;;3.53;1.10;;;486.70;2380.80;;;;;;5043356;28;20433;-84
2022/09/02 03:23:00;;;;;;;2.30;1.20;;;486.80;2380.80;;;;;;5057942;28;20021;-85
2022/09/02 03:25:29;;;;;;;2.20;1.25;;;486.80;2380.80;;;;;;5043410;28;20024;-85
2022/09/02 03:27:55;;;;;;;2.38;1.38;;;486.80;2380.80;;;;;;5050241;28;20029;-85
2022/09/02 03:30:24;;;;;;;2.45;1.30;;;486.80;2380.80;;;;;;5046250;28;20056;-86
2022/09/02 03:32:52;;;;;;;2.78;1.35;;;486.80;2380.80;;;;;;5038279;28;20029;-86
2022/09/02 03:35:20;;;;;;;2.53;1.50;;;486.70;2380.80;;;;;;5043462;28;20033;-84
2022/09/02 03:37:46;;;;;;;3.33;1.52;;;486.70;2380.80;;;;;;5043453;28;20057;-85
2022/09/02 03:40:16;;;;;;;3.63;1.45;;;486.70;2380.80;;;;;;5033284;28;20029;-85
2022/09/02 03:42:42;;;;;;;3.50;1.67;;;486.80;2380.80;;;;;;5035695;28;20467;-84
2022/09/02 03:45:09;;;;;;;2.90;1.50;;;486.80;2380.80;;;;;;5042247;28;20107;-84
2022/09/02 03:47:39;;;;;;;2.90;1.50;;;486.80;2380.80;;;;;;5053466;28;20071;-85
2022/09/02 03:50:05;;;;;;;2.97;1.70;;;486.70;2380.80;;;;;;5051112;28;20022;-85
2022/09/02 03:52:31;;;;;;;3.20;1.95;;;486.80;2380.80;;;;;;5038156;28;20497;-85
2022/09/02 03:54:57;;;;;;;4.88;3.05;;;486.80;2380.80;;;;;;5047392;28;20040;-84
2022/09/02 03:57:25;;;;;;;4.85;1.80;;;486.80;2380.80;;;;;;5047221;28;20033;-85
2022/09/02 03:59:51;;;;;;;2.90;1.75;;;486.70;2380.80;;;;;;5043688;28;20021;-85
2022/09/02 04:02:17;;;;;;;4.07;2.13;;;486.70;2380.80;;;;;;5040264;28;20726;-84
2022/09/02 04:04:43;;;;;;;3.67;2.00;;;486.60;2380.80;;;;;;5042259;28;20043;-84
2022/09/02 04:07:09;;;;;;;3.05;2.00;;;486.60;2380.80;;;;;;5047609;28;20031;-85
2022/09/02 04:09:35;;;;;;;4.80;1.90;;;486.70;2380.80;;;;;;5052609;28;20068;-83
2022/09/02 04:12:02;;;;;;;5.30;2.03;;;486.70;2380.80;;;;;;5047457;28;20457;-85
2022/09/02 04:14:28;;;;;;;3.83;2.00;;;486.60;2380.80;;;;;;5046298;28;20049;-84
2022/09/02 04:16:54;;;;;;;3.50;2.10;;;486.60;2380.80;;;;;;5044127;28;20099;-84
2022/09/02 04:19:20;;;;;;;4.15;1.83;;;486.50;2380.80;;;;;;5038466;28;20029;-84
2022/09/02 04:21:46;;;;;;;4.55;2.00;;;486.60;2380.80;;;;;;5041662;28;20029;-85
2022/09/02 04:24:12;;;;;;;3.75;1.70;;;486.50;2380.80;;;;;;5049230;28;21186;-85
2022/09/02 04:26:38;;;;;;;3.33;1.80;;;486.60;2380.80;;;;;;5041035;28;20029;-85
2022/09/02 04:29:06;;;;;;;3.15;1.88;;;461.50;2380.80;;;;;;5041690;28;20025;-84
2022/09/02 04:31:32;;;;;;;3.13;1.75;;;486.50;2380.80;;;;;;5046160;28;20383;-84
2022/09/02 04:33:58;;;;;;;3.10;1.88;;;486.40;2380.80;;;;;;5046738;28;20037;-85
2022/09/02 04:36:25;;;;;;;5.38;2.30;;;486.60;2380.80;;;;;;5046646;28;20048;-84
2022/09/02 04:38:52;;;;;;;4.75;2.50;;;486.50;2380.80;;;;;;5043296;28;20033;-84
2022/09/02 04:41:23;;;;;;;5.72;2.50;;;486.50;2380.80;;;;;;5043907;28;20024;-84
2022/09/02 04:43:50;;;;;;;4.15;2.33;;;486.40;2380.80;;;;;;5046070;28;20028;-84
2022/09/02 04:46:16;;;;;;;4.05;2.42;;;461.70;2380.80;;;;;;5044336;28;20021;-85
2022/09/02 04:48:43;;;;;;;3.10;2.20;;;486.40;2380.80;;;;;;5044031;28;20035;-85
2022/09/02 04:51:16;;;;;;;6.22;2.10;;;486.40;2380.80;;;;;;5041207;28;20037;-85
2022/09/02 04:53:44;;;;;;;5.88;2.40;;;486.50;2380.80;;;;;;5035798;28;20034;-85
2022/09/02 04:56:13;;;;;;;4.55;2.20;;;486.50;2380.80;;;;;;5035970;28;20025;-84
2022/09/02 04:58:40;;;;;;;4.50;2.10;;;486.50;2380.80;;;;;;5040069;28;20056;-84
2022/09/02 05:01:08;;;;;;;4.60;2.95;;;486.40;2380.80;;;;;;5035841;28;20374;-84
2022/09/02 05:03:35;;;;;;;3.45;2.53;;;486.50;2380.80;;;;;;5042601;28;20034;-85
2022/09/02 05:06:06;;;;;;;5.35;2.50;;;486.40;2380.80;;;;;;5042521;28;20021;-85
2022/09/02 05:08:35;;;;;;;7.32;2.88;;;486.40;2380.80;;;;;;5041646;28;20041;-85
2022/09/02 05:11:05;;;;;;;4.32;2.30;;;486.50;2380.80;;;;;;5037915;28;20025;-85
2022/09/02 05:13:31;;;;;;;3.90;2.92;;;486.40;2380.80;;;;;;5040532;28;20096;-84
2022/09/02 05:15:57;;;;;;;4.00;2.50;;;486.40;2380.80;;;;;;5046945;28;20025;-85
2022/09/02 05:18:22;;;;;;;4.32;2.90;;;486.40;2380.80;;;;;;5045360;28;20463;-86
2022/09/02 05:20:48;;;;;;;3.75;2.40;;;486.50;2380.80;;;;;;5038399;28;20025;-85
2022/09/02 05:23:14;;;;;;;4.10;2.55;;;486.50;2380.80;;;;;;5043278;28;20029;-85
2022/09/02 05:25:40;;;;;;;4.47;2.72;;;486.50;2380.80;;;;;;5035810;28;20092;-85
2022/09/02 05:28:10;;;;;;;3.65;2.53;;;486.50;2380.80;;;;;;5038875;28;20026;-85
2022/09/02 05:30:37;;;;;;;5.20;2.40;;;486.50;2380.80;;;;;;5039334;28;20034;-85
2022/09/02 05:33:04;;;;;;;5.03;2.78;;;486.60;2380.80;;;;;;5047659;28;20060;-85
2022/09/02 05:35:30;;;;;;;5.18;3.08;;;486.50;2380.80;;;;;;5042476;28;20061;-84
2022/09/02 05:37:57;;;;;;;4.68;2.70;;;486.50;2380.80;;;;;;5043185;28;20477;-86
2022/09/02 05:40:23;;;;;;;5.47;3.72;;;486.60;2380.80;;;;;;5047580;28;20031;-86
2022/09/02 05:42:48;;;;;;;5.25;4.22;;;486.60;2380.80;;;;;;5042810;28;20029;-85
2022/09/02 05:45:14;;;;;;;6.22;3.70;;;486.50;2380.80;;;;;;5045346;28;20037;-85
2022/09/02 05:47:40;;;;;;;5.43;3.10;;;486.50;2380.80;;;;;;5045383;28;20028;-85
2022/09/02 05:50:06;;;;;;;6.35;3.15;;;486.50;2380.80;;;;;;5046140;28;20079;-85
2022/09/02 05:52:32;;;;;;;5.40;2.80;;;461.50;2380.80;;;;;;5076354;28;20041;-85
2022/09/02 05:54:59;;;;;;;4.40;3.40;;;486.50;2380.80;;;;;;5045998;28;20033;-86
2022/09/02 05:57:25;;;;;;;4.70;2.83;;;486.60;2380.80;;;;;;5043636;28;20033;-85
2022/09/02 05:59:55;;;;;;;4.32;3.20;;;486.70;2380.80;;;;;;5048035;28;20025;-82
2022/09/02 06:02:23;;;;;;;4.95;3.25;;;486.60;2380.80;;;;;;5039067;28;20044;-81
2022/09/02 06:04:52;;;;;;;4.80;3.90;;;486.60;2380.80;;;;;;5080511;28;20029;-82
2022/09/02 06:07:22;;;;;;;4.38;2.50;;;486.60;2380.80;;;;;;5040775;28;20033;-83
2022/09/02 06:09:48;;;;;;;6.22;2.78;;;486.70;2380.80;;;;;;5050878;28;20036;-82
2022/09/02 06:12:16;;;;;;;3.95;2.47;;;486.80;2380.80;;;;;;5039250;28;20044;-82
2022/09/02 06:14:42;;;;;;;4.15;2.30;;;486.80;2380.80;;;;;;5039831;28;20033;-82
2022/09/02 06:17:09;;;;;;;3.55;2.33;;;486.70;2380.80;;;;;;5040134;28;20471;-82
2022/09/02 06:19:35;;;;;;;3.33;2.03;;;486.80;2380.80;;;;;;5044800;28;20056;-82
2022/09/02 06:22:02;;;;;;;3.20;2.15;;;486.80;2380.80;;;;;;5044119;28;20053;-83
2022/09/02 06:24:29;;;;;;;3.50;1.90;;;486.80;2380.80;;;;;;5050792;28;20025;-82
2022/09/02 06:26:55;;;;;;;3.92;2.15;;;486.50;2380.80;;;;;;5038421;28;20041;-84
2022/09/02 06:29:23;;;;;;;3.83;2.40;;;486.70;2380.80;;;;;;5043541;28;20029;-82
2022/09/02 06:31:50;;;;;;;4.18;2.50;;;486.70;2380.80;;;;;;5042984;28;20211;-83
2022/09/02 06:34:18;;;;;;;4.25;2.30;;;486.70;2380.80;;;;;;5039194;28;20083;-82
2022/09/02 06:36:45;;;;;;;3.40;2.40;;;486.70;2380.80;;;;;;5040184;28;20044;-82
2022/09/02 06:39:14;;;;;;;7.70;2.50;;;486.70;2380.80;;;;;;5049293;28;20045;-82
2022/09/02 06:41:42;;;;;;;3.60;2.30;;;486.70;2380.80;;;;;;5047751;28;20025;-82
2022/09/02 06:44:09;;;;;;;4.78;2.20;;;486.70;2380.80;;;;;;5073081;28;20060;-82
2022/09/02 06:46:39;;;;;;;3.55;2.38;;;486.70;2380.80;;;;;;5041808;28;20029;-83
2022/09/02 06:49:07;;;;;;;3.20;2.30;;;486.70;2380.80;;;;;;5040481;28;20030;-81
2022/09/02 06:51:39;;;;;;;4.07;2.17;;;486.70;2380.80;;;;;;5044043;28;20053;-80
2022/09/02 06:54:06;;;;;;;4.10;2.58;;;486.70;2380.80;;;;;;5047382;28;20037;-84
2022/09/02 06:56:34;;;;;;;4.18;2.20;;;486.70;2380.80;;;;;;5040521;28;20033;-85
2022/09/02 06:59:00;;;;;;;3.78;2.40;;;486.70;2380.80;;;;;;5040778;28;20029;-83
2022/09/02 07:01:29;;;;;;;4.80;1.95;;;486.90;2380.80;;;;;;5046878;28;20132;-83
2022/09/02 07:06:43;;;;;;;4.03;3.28;;;486.40;2380.80;;;;;;5049570;28;20079;-85
2022/09/02 07:09:10;;;;;;;4.85;2.70;;;486.70;2380.80;;;;;;5046224;28;20029;-84
2022/09/02 07:11:37;;;;;;;5.32;2.60;;;486.80;2380.80;;;;;;5041029;28;20036;-83
2022/09/02 07:14:03;;;;;;;4.57;2.75;;;486.70;2380.80;;;;;;5050181;28;20037;-83
2022/09/02 07:16:35;;;;;;;3.60;2.83;;;486.70;2380.80;;;;;;5051686;28;20465;-84
2022/09/02 07:19:02;;;;;;;7.13;2.75;;;486.80;2380.80;;;;;;5050794;28;20455;-83
2022/09/02 07:21:30;;;;;;;4.80;2.10;;;486.80;2380.80;;;;;;5044752;28;20036;-84
2022/09/02 07:23:59;;;;;;;4.40;3.08;;;486.80;2380.80;;;;;;5043922;28;20053;-83
2022/09/02 07:26:26;;;;;;;4.53;2.67;;;486.80;2380.80;;;;;;5043972;28;20528;-85
2022/09/02 07:28:52;;;;;;;3.58;2.60;;;486.80;2380.80;;;;;;5046753;28;20025;-85
2022/09/02 07:31:28;;;;;;;3.92;2.65;;;486.80;2380.80;;;;;;5038944;28;20074;-84
2022/09/02 07:33:58;;;;;;;6.93;2.70;;;486.80;2380.80;;;;;;5044802;28;20517;-82
2022/09/02 07:36:25;;;;;;;3.75;2.63;;;486.80;2380.80;;;;;;5044299;28;20127;-83
2022/09/02 07:38:54;;;;;;;4.70;2.75;;;486.80;2380.80;;;;;;5048932;28;20029;-83
2022/09/02 07:41:22;;;;;;;4.47;3.08;;;486.80;2380.80;;;;;;5049178;28;20044;-81
2022/09/02 07:43:49;;;;;;;6.07;2.55;;;486.80;2380.80;;;;;;5045878;28;20033;-83
2022/09/02 07:46:14;;;;;;;3.67;2.55;;;486.90;2380.80;;;;;;5048940;28;20053;-82
2022/09/02 07:48:41;;;;;;;6.38;3.45;;;486.80;2380.80;;;;;;5044345;28;20070;-85
2022/09/02 07:51:07;;;;;;;4.60;3.25;;;486.80;2380.80;;;;;;5044728;28;20028;-84
2022/09/02 07:53:35;;;;;;;4.65;2.72;;;486.80;2227.20;;;;;;5047645;28;20071;-84
2022/09/02 07:56:01;;;;;;;3.85;2.83;;;486.80;2380.80;;;;;;5046596;28;20033;-81
2022/09/02 07:58:27;;;;;;;5.97;3.10;;;486.90;2380.80;;;;;;5038948;28;20021;-84
2022/09/02 08:00:55;;;;;;;3.95;2.75;;;487.00;2380.80;;;;;;5040811;28;20056;-83
2022/09/02 08:03:24;;;;;;;5.07;2.83;;;487.00;2380.80;;;;;;5040733;28;20039;-85
2022/09/02 08:05:50;;;;;;;4.18;3.05;;;487.00;2380.80;;;;;;5038438;28;20445;-83
2022/09/02 08:08:19;;;;;;;4.63;3.20;;;487.00;2380.80;;;;;;5042457;28;20043;-81
2022/09/02 08:10:50;;;;;;;5.22;3.65;;;487.00;2380.80;;;;;;5044781;28;20083;-85
2022/09/02 08:13:16;;;;;;;4.60;3.50;;;487.00;2380.80;;;;;;5044486;28;20031;-82
2022/09/02 08:15:43;;;;;;;4.75;4.03;;;486.70;2380.80;;;;;;5045778;28;20525;-83
2022/09/02 08:18:09;;;;;;;6.93;4.70;;;487.10;2380.80;;;;;;5040183;28;20447;-85
2022/09/02 08:20:35;;;;;;;5.72;4.30;;;487.10;2380.80;;;;;;5040522;28;20057;-84
2022/09/02 08:23:05;;;;;;;7.05;5.07;;;487.10;2380.80;;;;;;5048525;28;20018;-85
2022/09/02 08:25:32;;;;;;;6.60;4.05;;;487.00;2380.80;;;;;;5043983;28;20036;-83
2022/09/02 08:27:58;;;;;;;4.97;3.92;;;487.00;2380.80;;;;;;5049056;28;20029;-84
2022/09/02 08:30:24;;;;;;;5.88;4.63;;;487.10;2380.80;;;;;;5034339;28;20037;-82
2022/09/02 08:32:50;;;;;;;7.00;4.82;;;487.00;2380.80;;;;;;5035596;28;20029;-82
2022/09/02 08:35:16;;;;;;;6.35;5.47;;;487.10;2380.80;;;;;;5040857;28;20033;-83
2022/09/02 08:37:42;;;;;;;6.03;5.43;;;487.10;2380.80;;;;;;5047061;28;20021;-80
2022/09/02 08:40:14;;;;;;;7.95;5.72;;;487.10;2380.80;;;;;;5051629;28;20029;-85
2022/09/02 08:42:52;;;;;;;7.18;5.32;;;487.10;2380.80;;;;;;5051822;28;20025;-85
2022/09/02 08:45:36;;;;;;;9.32;5.28;;;487.10;2380.80;;;;;;5077380;28;20470;-84
2022/09/02 08:48:09;;;;;;;5.68;4.88;;;487.10;2380.80;;;;;;5048995;28;20115;-82
2022/09/02 08:50:37;;;;;;;5.78;4.32;;;487.00;2380.80;;;;;;5048164;28;20036;-83
2022/09/02 08:53:08;;;;;;;9.40;5.22;;;487.10;2380.80;;;;;;5049047;28;20075;-82
2022/09/02 08:55:47;;;;;;;14.57;5.30;;;487.10;2380.80;;;;;;5051955;28;20111;-82
2022/09/02 08:58:17;;;;;;;5.95;4.90;;;487.10;2380.80;;;;;;5060200;28;20063;-84
2022/09/02 09:00:50;;;;;;;7.38;5.07;;;487.10;2380.80;;;;;;5057476;28;20044;-85
2022/09/02 09:03:41;;;;;;;9.18;4.35;;;487.10;2380.80;;;;;;5044567;28;20384;-84
2022/09/02 09:06:22;;;;;;;5.60;4.20;;;487.20;2380.80;;;;;;5044230;28;20038;-86
2022/09/02 09:08:58;;;;;;;4.63;3.95;;;487.00;2380.80;;;;;;5044429;28;20025;-84
2022/09/02 09:11:42;;;;;;;5.15;4.10;;;487.00;2380.80;;;;;;5046547;28;20036;-86
2022/09/02 09:14:41;;;;;;;5.07;4.40;;;487.00;2380.80;;;;;;5075649;28;20120;-85
2022/09/02 09:17:27;;;;;;;5.03;4.30;;;487.00;2380.80;;;;;;5031860;28;20041;-85
2022/09/02 09:19:59;;;;;;;5.25;4.30;;;487.00;2380.80;;;;;;5044150;28;20144;-85
2022/09/02 09:22:32;;;;;;;4.93;4.43;;;487.00;2380.80;;;;;;5041417;28;20033;-85
2022/09/02 09:24:58;;;;;;;7.53;4.20;;;487.00;2380.80;;;;;;5052490;28;20021;-84
2022/09/02 09:27:25;;;;;;;8.10;4.60;;;487.00;2380.80;;;;;;5048269;28;20029;-85
2022/09/02 09:29:52;;;;;;;5.55;4.60;;;487.10;2380.80;;;;;;5078508;28;20026;-86
2022/09/02 09:32:29;;;;;;;6.93;4.65;;;487.00;2380.80;;;;;;5050319;28;20389;-87
2022/09/02 09:35:01;;;;;;;5.72;3.92;;;486.90;2380.80;;;;;;5078068;28;20033;-85
2022/09/02 09:37:29;;;;;;;7.47;4.30;;;487.00;2380.80;;;;;;5045415;28;20044;-85
2022/09/02 09:39:54;;;;;;;6.45;3.45;;;487.00;2380.80;;;;;;5046398;28;20031;-85
2022/09/02 09:42:31;;;;;;;7.30;4.35;;;487.00;2380.80;;;;;;5052696;28;20469;-86
2022/09/02 09:44:57;;;;;;;5.05;3.58;;;487.00;2380.80;;;;;;5043303;28;20117;-87
2022/09/02 09:47:25;;;;;;;5.43;4.43;;;487.00;2380.80;;;;;;5050333;28;20664;-86
2022/09/02 09:49:53;;;;;;;7.05;4.15;;;487.10;2380.80;;;;;;5048932;28;20112;-85
2022/09/02 09:52:23;;;;;;;5.82;4.53;;;487.10;2380.80;;;;;;5050877;28;20110;-86
2022/09/02 09:55:19;;;;;;;4.70;3.75;;;487.10;2380.80;;;;;;5052374;28;20033;-88
2022/09/02 09:57:47;;;;;;;4.15;3.28;;;487.10;2380.80;;;;;;5050334;28;20014;-84
2022/09/02 10:00:32;;;;;;;5.47;3.30;;;487.00;2380.80;;;;;;5048152;28;20026;-87
2022/09/02 10:03:00;;;;;;;4.20;2.88;;;487.10;2380.80;;;;;;5052875;28;20053;-86
2022/09/02 10:05:26;;;;;;;3.97;3.08;;;487.10;2380.80;;;;;;5043950;28;20030;-85
2022/09/02 10:07:58;;;;;;;5.07;2.78;;;487.00;2380.80;;;;;;5046507;28;20040;-81
2022/09/02 10:10:27;;;;;;;3.72;2.50;;;487.10;2380.80;;;;;;5037877;28;20164;-84
2022/09/02 10:12:56;;;;;;;3.30;2.10;;;487.10;2380.80;;;;;;5041437;28;20434;-85
2022/09/02 10:15:42;;;;;;;4.40;2.55;;;487.20;2380.80;;;;;;5043852;28;20037;-85
2022/09/02 10:18:22;;;;;;;4.78;2.45;;;487.20;2380.80;;;;;;5079720;28;20026;-85
2022/09/02 10:21:22;;;;;;;4.82;2.30;;;487.10;2380.80;;;;;;5043048;28;20471;-86
2022/09/02 10:24:26;;;;;;;3.50;2.47;;;487.20;2380.80;;;;;;5074838;28;20127;-84
2022/09/02 10:26:57;;;;;;;3.67;2.60;;;487.10;2380.80;;;;;;5058735;28;20471;-85
2022/09/02 10:29:47;;;;;;;4.22;2.20;;;487.30;2380.80;;;;;;5038599;28;20025;-84
2022/09/02 10:32:46;;;;;;;3.95;2.35;;;487.30;2380.80;;;;;;5038894;28;20036;-84
2022/09/02 10:35:33;;;;;;;4.65;2.05;;;487.30;2380.80;;;;;;5038613;28;20044;-86
2022/09/02 10:38:14;;;;;;;3.55;2.38;;;487.30;2380.80;;;;;;5048115;28;20048;-83
2022/09/02 10:40:50;;;;;;;3.33;2.20;;;487.10;2380.80;;;;;;5042967;28;20033;-86
2022/09/02 10:43:28;;;;;;;3.40;2.40;;;487.20;2380.80;;;;;;5050021;28;20025;-85
2022/09/02 10:45:58;;;;;;;5.25;2.88;;;487.10;2380.80;;;;;;5043294;28;20024;-84
2022/09/02 10:48:36;;;;;;;2.70;1.58;;;487.10;2380.80;;;;;;5037730;28;20029;-84
2022/09/02 10:51:20;;;;;;;3.45;1.70;;;487.00;2380.80;;;;;;5045208;28;20026;-88
2022/09/02 10:54:12;;;;;;;2.42;1.52;;;487.00;2380.80;;;;;;5048523;28;20036;-84
2022/09/02 10:57:10;;;;;;;2.97;1.50;;;487.00;2380.80;;;;;;5044285;28;20035;-85
2022/09/02 10:59:58;;;;;;;2.70;1.48;;;487.00;2380.80;;;;;;5048014;28;20026;-87
2022/09/02 11:02:30;;;;;;;4.90;1.73;;;486.80;2380.80;;;;;;5032622;28;20044;-83
2022/09/02 11:05:08;;;;;;;3.22;1.75;;;486.80;2380.80;;;;;;5041984;28;20079;-83
2022/09/02 11:08:02;;;;;;;2.88;1.35;;;486.80;2380.80;;;;;;5050704;28;20032;-84
2022/09/02 11:10:42;;;;;;;2.80;1.65;;;486.80;2380.80;;;;;;5051711;28;20039;-83
2022/09/02 11:13:19;;;;;;;4.05;1.50;;;486.80;2380.80;;;;;;5047529;28;20033;-85
2022/09/02 11:15:56;;;;;;;2.85;1.50;;;486.80;2380.80;;;;;;5045926;28;20040;-87
2022/09/02 11:18:34;;;;;;;4.15;2.00;;;486.80;2380.80;;;;;;5047192;28;20123;-85
2022/09/02 11:21:09;;;;;;;4.25;1.60;;;486.80;2380.80;;;;;;5044776;28;20025;-85
2022/09/02 11:23:44;;;;;;;2.65;1.40;;;486.70;2380.80;;;;;;5050933;28;20445;-84
2022/09/02 11:26:23;;;;;;;5.90;1.67;;;486.80;2380.80;;;;;;5044768;28;20021;-84
2022/09/02 11:29:10;;;;;;;4.53;1.52;;;486.70;2380.80;;;;;;5049015;28;20360;-84
2022/09/02 11:31:41;;;;;;;5.93;1.55;;;486.80;2380.80;;;;;;5074689;28;20056;-84
2022/09/02 11:34:25;;;;;;;3.13;1.30;;;486.80;2380.80;;;;;;5053416;28;20485;-83
2022/09/02 11:36:51;;;;;;;5.93;1.60;;;486.70;2380.80;;;;;;5046254;28;20040;-86
2022/09/02 11:39:28;;;;;;;3.53;1.48;;;486.80;2380.80;;;;;;5042411;28;20036;-84
2022/09/02 11:42:40;;;;;;;2.38;1.30;;;486.80;2380.80;;;;;;5044649;28;20386;-86
2022/09/02 11:45:39;;;;;;;2.47;1.40;;;486.80;2380.80;;;;;;5043148;28;20033;-85
2022/09/02 11:48:08;;;;;;;6.38;1.80;;;486.80;2380.80;;;;;;5044917;28;20030;-85
2022/09/02 11:50:52;;;;;;;2.75;1.40;;;486.70;2380.80;;;;;;5045667;28;20032;-86
2022/09/02 11:53:40;;;;;;;3.97;1.55;;;486.60;2380.80;;;;;;5038990;28;20030;-86
2022/09/02 11:56:27;;;;;;;2.95;1.15;;;486.80;2380.80;;;;;;5037275;28;20483;-85
2022/09/02 11:58:54;;;;;;;2.13;1.10;;;486.80;2380.80;;;;;;5044372;28;20030;-85
2022/09/02 12:01:57;;;;;;;2.38;1.15;;;486.80;2380.80;;;;;;5039872;28;20055;-87
2022/09/02 12:04:25;;;;;;;;;;;486.80;2380.80;;;;;;5030372;28;20040;-84
2022/09/02 12:07:06;;;;;;;2.33;1.13;;;486.80;2380.80;;;;;;5052945;28;20316;-88
2022/09/02 12:09:46;;;;;;;2.25;1.20;;;486.70;2380.80;;;;;;5051032;28;20355;-84
2022/09/02 12:12:40;;;;;;;2.05;1.00;;;486.60;2380.80;;;;;;5039758;28;20085;-86
2022/09/02 12:15:10;;;;;;;2.30;1.17;;;486.70;2380.80;;;;;;5046479;28;20033;-87
2022/09/02 12:17:39;;;;;;;3.35;1.17;;;486.70;2380.80;;;;;;5041768;28;20029;-86
2022/09/02 12:20:07;;;;;;;2.80;1.20;;;486.70;2380.80;;;;;;5039447;28;20048;-87
2022/09/02 12:22:38;;;;;;;1.83;1.00;;;486.60;2380.80;;;;;;5039746;28;20124;-85
2022/09/02 12:25:55;;;;;;;2.00;1.00;;;486.60;2380.80;;;;;;5047571;28;20055;-84
2022/09/02 12:28:29;;;;;;;2.53;1.02;;;486.70;2380.80;;;;;;5061312;28;20378;-86
2022/09/02 12:30:55;;;;;;;2.95;1.00;;;486.80;2380.80;;;;;;5064042;28;20064;-86
2022/09/02 12:33:50;;;;;;;2.00;1.02;;;486.80;2380.80;;;;;;5047070;28;20115;-87
2022/09/02 12:36:35;;;;;;;2.13;1.10;;;486.70;2380.80;;;;;;5038283;28;20041;-87
2022/09/02 12:39:29;;;;;;;2.90;1.20;;;486.80;2380.80;;;;;;5038297;28;20026;-86